createdAt,value
2022-11-15T00:00:48.532Z,19.67
2022-11-15T00:03:34.841Z,19.20
2022-11-15T00:06:21.782Z,20.17
2022-11-15T00:09:09.405Z,20.80
2022-11-15T00:11:55.505Z,20.63
2022-11-15T00:14:41.560Z,20.70
2022-11-15T00:21:27.695Z,21.87
2022-11-15T00:27:13.326Z,21.60
2022-11-15T00:30:00.646Z,23.80
2022-11-15T00:32:48.034Z,23.03
2022-11-15T00:36:06.917Z,23.00
2022-11-15T00:38:52.590Z,23.43
2022-11-15T00:41:38.666Z,23.10
2022-11-15T00:44:24.753Z,23.27
2022-11-15T00:47:10.795Z,23.13
2022-11-15T00:50:01.938Z,23.50
2022-11-15T00:52:48.156Z,23.23
2022-11-15T00:55:42.737Z,24.30
2022-11-15T00:58:33.254Z,23.90
2022-11-15T01:01:24.876Z,25.43
2022-11-15T01:04:13.492Z,24.30
2022-11-15T01:06:59.412Z,24.43
2022-11-15T01:09:45.636Z,24.67
2022-11-15T01:12:31.971Z,26.37
2022-11-15T01:15:18.444Z,25.73
2022-11-15T01:18:04.338Z,26.53
2022-11-15T01:20:52.231Z,26.50
2022-11-15T01:23:39.712Z,26.70
2022-11-15T01:26:26.683Z,27.43
2022-11-15T01:29:16.446Z,27.67
2022-11-15T01:32:03.787Z,27.73
2022-11-15T01:34:52.057Z,28.43
2022-11-15T01:37:38.168Z,27.87
2022-11-15T01:40:24.948Z,27.70
2022-11-15T01:43:25.577Z,28.83
2022-11-15T01:46:25.150Z,28.73
2022-11-15T01:49:32.743Z,28.90
2022-11-15T01:52:22.455Z,29.03
2022-11-15T01:55:08.740Z,29.17
2022-11-15T01:57:56.343Z,28.17
2022-11-15T02:00:43.379Z,28.30
2022-11-15T02:03:34.834Z,27.77
2022-11-15T02:06:20.750Z,27.23
2022-11-15T02:09:08.254Z,27.93
2022-11-15T02:11:57.670Z,28.23
2022-11-15T02:14:50.171Z,26.47
2022-11-15T02:17:54.694Z,27.33
2022-11-15T02:20:47.190Z,26.53
2022-11-15T02:23:44.885Z,26.37
2022-11-15T02:27:04.569Z,27.67
2022-11-15T02:30:08.970Z,27.20
2022-11-15T02:32:59.966Z,26.33
2022-11-15T02:35:50.197Z,27.43
2022-11-15T02:38:38.706Z,27.03
2022-11-15T02:41:34.181Z,27.27
2022-11-15T02:44:32.222Z,26.13
2022-11-15T02:47:21.416Z,26.93
2022-11-15T02:50:09.923Z,27.83
2022-11-15T02:52:55.938Z,27.27
2022-11-15T02:55:46.500Z,27.97
2022-11-15T02:58:48.377Z,27.90
2022-11-15T03:01:54.325Z,27.20
2022-11-15T03:04:52.606Z,28.13
2022-11-15T03:07:51.512Z,29.00
2022-11-15T03:10:44.531Z,29.10
2022-11-15T03:13:45.607Z,29.07
2022-11-15T03:23:14.698Z,29.37
2022-11-15T03:26:03.660Z,30.17
2022-11-15T03:29:01.805Z,30.33
2022-11-15T03:31:52.014Z,29.70
2022-11-15T03:34:45.938Z,30.80
2022-11-15T03:37:45.178Z,29.83
2022-11-15T03:40:35.679Z,30.80
2022-11-15T03:43:47.021Z,31.97
2022-11-15T03:46:43.293Z,29.73
2022-11-15T03:50:04.978Z,28.47
2022-11-15T03:52:54.811Z,30.73
2022-11-15T03:58:44.613Z,30.63
2022-11-15T04:01:30.525Z,30.40
2022-11-15T04:04:16.545Z,30.47
2022-11-15T04:07:03.887Z,31.57
2022-11-15T04:10:07.376Z,31.63
2022-11-15T04:12:57.864Z,31.80
2022-11-15T04:15:49.488Z,30.70
2022-11-15T04:18:37.582Z,31.37
2022-11-15T04:21:42.267Z,32.50
2022-11-15T04:24:28.401Z,31.13
2022-11-15T04:27:15.457Z,30.47
2022-11-15T04:30:01.303Z,29.60
2022-11-15T04:32:47.837Z,28.07
2022-11-15T04:36:24.756Z,29.17
2022-11-15T04:39:16.835Z,29.07
2022-11-15T04:42:05.998Z,28.57
2022-11-15T04:44:54.662Z,29.27
2022-11-15T04:47:40.658Z,29.20
2022-11-15T04:50:26.576Z,29.07
2022-11-15T04:53:14.604Z,31.27
2022-11-15T04:56:01.002Z,28.57
2022-11-15T04:58:55.129Z,29.50
2022-11-15T05:01:46.573Z,30.23
2022-11-15T05:08:39.287Z,28.60
2022-11-15T05:11:24.753Z,29.33
2022-11-15T05:14:13.511Z,28.23
2022-11-15T05:17:02.586Z,28.67
2022-11-15T05:19:50.522Z,28.50
2022-11-15T05:22:36.588Z,28.07
2022-11-15T05:25:22.790Z,28.73
2022-11-15T05:28:08.543Z,30.40
2022-11-15T05:30:55.496Z,28.27
2022-11-15T05:34:00.335Z,27.77
2022-11-15T05:39:48.182Z,30.17
2022-11-15T05:42:34.834Z,29.87
2022-11-15T05:45:26.947Z,29.03
2022-11-15T05:48:24.180Z,27.90
2022-11-15T05:51:11.700Z,29.50
2022-11-15T05:53:58.578Z,29.13
2022-11-15T05:56:47.945Z,28.97
2022-11-15T05:59:34.303Z,28.87
2022-11-15T06:02:20.072Z,30.10
2022-11-15T06:05:07.452Z,29.17
2022-11-15T06:07:53.350Z,32.97
2022-11-15T06:10:39.401Z,31.27
2022-11-15T06:13:25.795Z,29.80
2022-11-15T06:16:16.905Z,28.67
2022-11-15T06:19:07.198Z,28.50
2022-11-15T06:21:53.195Z,27.93
2022-11-15T06:24:39.831Z,28.43
2022-11-15T06:27:30.002Z,27.73
2022-11-15T06:30:19.315Z,27.70
2022-11-15T06:33:05.769Z,28.73
2022-11-15T06:35:51.590Z,29.23
2022-11-15T06:38:37.736Z,28.63
2022-11-15T06:41:23.689Z,28.53
2022-11-15T06:44:10.217Z,28.60
2022-11-15T06:46:57.050Z,28.47
2022-11-15T06:49:42.683Z,30.00
2022-11-15T06:52:42.200Z,30.47
2022-11-15T06:55:53.495Z,30.13
2022-11-15T06:58:44.184Z,30.07
2022-11-15T07:01:31.288Z,26.10
2022-11-15T07:04:18.371Z,25.17
2022-11-15T07:07:16.146Z,25.20
2022-11-15T07:10:05.818Z,26.60
2022-11-15T07:12:55.241Z,25.50
2022-11-15T07:15:42.609Z,24.77
2022-11-15T07:18:29.767Z,25.77
2022-11-15T07:21:16.024Z,23.67
2022-11-15T07:24:03.049Z,23.67
2022-11-15T07:26:50.891Z,22.70
2022-11-15T07:29:40.236Z,22.30
2022-11-15T07:32:28.584Z,23.53
2022-11-15T07:35:15.511Z,24.33
2022-11-15T07:38:02.519Z,23.87
2022-11-15T07:40:49.061Z,24.33
2022-11-15T07:43:35.647Z,25.13
2022-11-15T07:46:22.400Z,29.02
2022-11-15T07:49:10.509Z,27.23
2022-11-15T07:51:56.495Z,25.50
2022-11-15T07:54:42.393Z,26.57
2022-11-15T07:57:28.605Z,25.87
2022-11-15T08:00:18.997Z,24.97
2022-11-15T08:03:06.272Z,24.03
2022-11-15T08:05:53.226Z,25.53
2022-11-15T08:08:43.405Z,24.57
2022-11-15T08:11:29.426Z,24.80
2022-11-15T08:14:16.407Z,24.23
2022-11-15T08:17:04.659Z,24.20
2022-11-15T08:19:54.087Z,23.93
2022-11-15T08:22:44.456Z,24.17
2022-11-15T08:25:33.741Z,23.30
2022-11-15T08:28:19.614Z,24.90
2022-11-15T08:31:06.235Z,24.20
2022-11-15T08:33:52.684Z,23.90
2022-11-15T08:36:45.710Z,24.03
2022-11-15T08:39:32.582Z,22.97
2022-11-15T08:42:20.122Z,22.47
2022-11-15T08:45:09.113Z,23.97
2022-11-15T08:47:58.299Z,23.83
2022-11-15T08:50:46.924Z,24.47
2022-11-15T08:53:32.886Z,24.33
2022-11-15T08:56:18.852Z,24.97
2022-11-15T08:59:06.652Z,26.40
2022-11-15T09:01:52.560Z,24.67
2022-11-15T09:04:40.591Z,24.43
2022-11-15T09:07:26.721Z,24.43
2022-11-15T09:10:12.938Z,24.97
2022-11-15T09:13:05.490Z,23.13
2022-11-15T09:15:51.718Z,24.97
2022-11-15T09:18:37.606Z,24.13
2022-11-15T09:21:24.726Z,23.27
2022-11-15T09:24:13.697Z,24.23
2022-11-15T09:27:01.729Z,26.03
2022-11-15T09:29:48.421Z,25.50
2022-11-15T09:32:44.662Z,26.37
2022-11-15T09:35:30.377Z,26.47
2022-11-15T09:38:19.044Z,26.10
2022-11-15T09:41:13.898Z,24.70
2022-11-15T09:44:13.838Z,26.00
2022-11-15T09:47:20.883Z,26.60
2022-11-15T09:50:12.011Z,24.53
2022-11-15T09:52:41.411Z,24.83
2022-11-15T09:55:14.106Z,25.80
2022-11-15T09:58:02.584Z,26.13
2022-11-15T10:00:48.219Z,26.47
2022-11-15T10:03:24.361Z,26.47
2022-11-15T10:05:55.998Z,26.07
2022-11-15T10:08:33.060Z,25.90
2022-11-15T10:11:35.502Z,26.43
2022-11-15T10:13:50.867Z,26.03
2022-11-15T10:16:28.959Z,26.80
2022-11-15T10:19:04.442Z,25.77
2022-11-15T10:21:51.691Z,27.13
2022-11-15T10:24:21.472Z,26.80
2022-11-15T10:26:52.022Z,27.13
2022-11-15T10:29:27.157Z,28.13
2022-11-15T10:31:55.604Z,27.30
2022-11-15T10:34:24.541Z,28.13
2022-11-15T10:37:01.150Z,28.00
2022-11-15T10:39:28.941Z,29.03
2022-11-15T10:42:02.757Z,29.60
2022-11-15T10:44:33.758Z,28.60
2022-11-15T10:47:23.427Z,28.00
2022-11-15T10:50:02.039Z,28.47
2022-11-15T10:52:37.536Z,28.00
2022-11-15T10:55:13.688Z,28.23
2022-11-15T10:57:41.714Z,29.10
2022-11-15T11:00:28.968Z,29.23
2022-11-15T11:03:08.973Z,26.63
2022-11-15T11:06:27.693Z,27.87
2022-11-15T11:09:03.221Z,27.20
2022-11-15T11:11:50.168Z,30.77
2022-11-15T11:14:34.539Z,27.53
2022-11-15T11:17:16.211Z,28.43
2022-11-15T11:20:02.574Z,28.67
2022-11-15T11:22:55.774Z,28.57
2022-11-15T11:25:23.115Z,28.00
2022-11-15T11:27:59.609Z,28.17
2022-11-15T11:30:34.221Z,29.10
2022-11-15T11:33:12.026Z,27.17
2022-11-15T11:35:59.986Z,29.40
2022-11-15T11:38:31.865Z,28.80
2022-11-15T11:41:06.519Z,29.90
2022-11-15T11:43:43.445Z,30.80
2022-11-15T11:46:30.773Z,32.30
2022-11-15T11:49:28.489Z,31.70
2022-11-15T11:52:22.703Z,30.97
2022-11-15T11:55:11.125Z,31.30
2022-11-15T11:57:50.548Z,30.37
2022-11-15T12:00:39.884Z,31.33
2022-11-15T12:03:27.700Z,31.77
2022-11-15T12:06:47.582Z,32.20
2022-11-15T12:09:32.796Z,31.80
2022-11-15T12:12:07.907Z,32.00
2022-11-15T12:14:41.266Z,32.33
2022-11-15T12:17:12.781Z,31.67
2022-11-15T12:19:40.982Z,32.83
2022-11-15T12:22:21.817Z,32.20
2022-11-15T12:25:02.029Z,32.87
2022-11-15T12:27:39.733Z,33.10
2022-11-15T12:30:14.683Z,31.97
2022-11-15T12:32:50.697Z,32.73
2022-11-15T12:35:41.559Z,32.57
2022-11-15T12:41:13.595Z,33.93
2022-11-15T12:43:49.917Z,33.17
2022-11-15T12:46:29.769Z,33.83
2022-11-15T12:48:58.927Z,34.23
2022-11-15T12:52:05.859Z,35.07
2022-11-15T12:54:53.441Z,35.83
2022-11-15T12:57:29.376Z,35.63
2022-11-15T12:59:59.638Z,36.20
2022-11-15T13:02:39.996Z,34.40
2022-11-15T13:05:19.265Z,37.47
2022-11-15T13:08:01.921Z,34.83
2022-11-15T13:10:34.735Z,35.83
2022-11-15T13:13:10.304Z,37.00
2022-11-15T13:16:00.129Z,35.03
2022-11-15T13:18:33.966Z,35.90
2022-11-15T13:21:03.139Z,36.80
2022-11-15T13:23:30.749Z,37.50
2022-11-15T13:26:04.672Z,36.53
2022-11-15T13:28:52.872Z,35.67
2022-11-15T13:31:24.697Z,37.07
2022-11-15T13:33:52.303Z,39.37
2022-11-15T13:36:29.841Z,38.97
2022-11-15T13:39:00.256Z,40.33
2022-11-15T13:41:32.525Z,37.53
2022-11-15T13:44:04.300Z,37.47
2022-11-15T13:46:33.922Z,37.93
2022-11-15T13:49:05.259Z,37.40
2022-11-15T13:51:39.099Z,38.13
2022-11-15T13:54:23.652Z,38.90
2022-11-15T13:57:07.301Z,39.03
2022-11-15T13:59:54.550Z,38.37
2022-11-15T14:02:26.965Z,37.37
2022-11-15T14:05:17.723Z,36.17
2022-11-15T14:08:02.894Z,36.57
2022-11-15T14:10:32.272Z,37.17
2022-11-15T14:13:00.667Z,35.63
2022-11-15T14:15:36.627Z,35.63
2022-11-15T14:18:05.057Z,34.83
2022-11-15T14:20:45.577Z,34.90
2022-11-15T14:23:32.620Z,34.47
2022-11-15T14:26:06.291Z,35.00
2022-11-15T14:28:42.391Z,34.33
2022-11-15T14:31:14.212Z,36.03
2022-11-15T14:33:41.618Z,37.57
2022-11-15T14:36:16.675Z,36.40
2022-11-15T14:38:44.224Z,36.60
2022-11-15T14:41:19.227Z,35.60
2022-11-15T14:43:46.531Z,37.13
2022-11-15T14:46:14.863Z,38.03
2022-11-15T14:48:42.792Z,36.87
2022-11-15T14:51:14.275Z,36.53
2022-11-15T14:53:43.333Z,36.97
2022-11-15T14:56:11.058Z,38.40
2022-11-15T14:58:38.638Z,40.87
2022-11-15T15:01:14.535Z,39.83
2022-11-15T15:03:41.926Z,40.93
2022-11-15T15:06:16.514Z,41.47
2022-11-15T15:08:46.139Z,39.17
2022-11-15T15:11:18.900Z,39.13
2022-11-15T15:13:47.263Z,39.53
2022-11-15T15:16:14.524Z,39.37
2022-11-15T15:18:41.976Z,38.53
2022-11-15T15:21:20.752Z,38.00
2022-11-15T15:23:47.991Z,37.53
2022-11-15T15:26:15.645Z,36.03
2022-11-15T15:28:43.101Z,37.23
2022-11-15T15:31:11.049Z,36.00
2022-11-15T15:33:38.933Z,38.57
2022-11-15T15:36:06.435Z,35.57
2022-11-15T15:38:34.085Z,35.40
2022-11-15T15:41:09.530Z,34.50
2022-11-15T15:43:38.830Z,35.07
2022-11-15T15:46:15.357Z,34.60
2022-11-15T15:48:42.724Z,34.60
2022-11-15T15:51:28.932Z,34.57
2022-11-15T15:53:59.729Z,34.53
2022-11-15T15:56:28.744Z,34.60
2022-11-15T15:58:56.553Z,34.13
2022-11-15T16:01:24.223Z,34.73
2022-11-15T16:04:00.232Z,33.87
2022-11-15T16:09:46.958Z,34.57
2022-11-15T16:12:15.410Z,35.40
2022-11-15T16:14:43.726Z,35.37
2022-11-15T16:17:18.595Z,35.80
2022-11-15T16:19:45.846Z,35.10
2022-11-15T16:23:08.723Z,35.17
2022-11-15T16:25:40.152Z,34.57
2022-11-15T16:28:15.527Z,36.67
2022-11-15T16:30:42.957Z,35.30
2022-11-15T16:33:10.685Z,34.40
2022-11-15T16:35:38.051Z,33.33
2022-11-15T16:38:05.555Z,33.67
2022-11-15T16:40:35.559Z,33.67
2022-11-15T16:43:05.652Z,33.83
2022-11-15T16:45:35.147Z,32.27
2022-11-15T16:48:02.677Z,32.07
2022-11-15T16:51:04.713Z,34.17
2022-11-15T16:53:34.928Z,31.23
2022-11-15T16:56:02.208Z,31.77
2022-11-15T16:58:29.877Z,32.10
2022-11-15T17:00:58.249Z,32.97
2022-11-15T17:03:25.755Z,35.23
2022-11-15T17:05:53.320Z,34.70
2022-11-15T17:08:22.985Z,35.27
2022-11-15T17:10:50.333Z,36.90
2022-11-15T17:13:17.639Z,38.00
2022-11-15T17:15:44.969Z,38.53
2022-11-15T17:18:15.281Z,37.77
2022-11-15T17:20:45.878Z,39.30
2022-11-15T17:23:14.919Z,38.87
2022-11-15T17:25:42.533Z,37.93
2022-11-15T17:28:09.878Z,36.07
2022-11-15T17:30:37.245Z,35.40
2022-11-15T17:33:05.870Z,36.07
2022-11-15T17:35:33.730Z,33.67
2022-11-15T17:38:01.069Z,32.73
2022-11-15T17:40:29.986Z,33.67
2022-11-15T17:42:57.767Z,33.20
2022-11-15T17:45:25.235Z,32.70
2022-11-15T17:47:56.368Z,33.80
2022-11-15T17:50:23.838Z,33.43
2022-11-15T17:52:51.110Z,32.93
2022-11-15T17:55:20.986Z,32.37
2022-11-15T17:57:48.839Z,30.90
2022-11-15T18:00:16.513Z,32.63
2022-11-15T18:02:43.870Z,31.80
2022-11-15T18:05:11.676Z,31.73
2022-11-15T18:07:40.911Z,30.00
2022-11-15T18:10:08.582Z,29.77
2022-11-15T18:12:35.862Z,31.50
2022-11-15T18:15:05.392Z,30.03
2022-11-15T18:17:32.659Z,28.57
2022-11-15T18:20:01.754Z,28.97
2022-11-15T18:22:29.027Z,28.63
2022-11-15T18:24:56.329Z,27.90
2022-11-15T18:27:24.794Z,28.97
2022-11-15T18:29:52.057Z,30.37
2022-11-15T18:32:19.842Z,30.37
2022-11-15T18:34:47.937Z,29.90
2022-11-15T18:37:15.218Z,28.27
2022-11-15T18:39:42.574Z,26.57
2022-11-15T18:42:09.830Z,25.87
2022-11-15T18:44:37.246Z,25.17
2022-11-15T18:47:04.587Z,26.50
2022-11-15T18:49:32.014Z,24.27
2022-11-15T18:51:59.461Z,23.63
2022-11-15T18:54:31.441Z,24.57
2022-11-15T18:56:59.272Z,22.33
2022-11-15T18:59:27.930Z,23.53
2022-11-15T19:01:56.110Z,22.37
2022-11-15T19:04:23.408Z,22.40
2022-11-15T19:06:55.194Z,22.63
2022-11-15T19:09:29.390Z,21.47
2022-11-15T19:11:57.768Z,21.67
2022-11-15T19:14:28.465Z,20.93
2022-11-15T19:16:56.122Z,21.67
2022-11-15T19:19:24.590Z,23.13
2022-11-15T19:21:52.599Z,22.93
2022-11-15T19:24:19.970Z,23.27
2022-11-15T19:26:47.741Z,23.93
2022-11-15T19:29:19.289Z,25.10
2022-11-15T19:31:50.940Z,24.50
2022-11-15T19:34:18.315Z,24.07
2022-11-15T19:36:46.709Z,22.47
2022-11-15T19:39:15.024Z,23.90
2022-11-15T19:41:43.417Z,23.60
2022-11-15T19:44:11.358Z,24.07
2022-11-15T19:46:39.418Z,23.33
2022-11-15T19:49:11.054Z,23.30
2022-11-15T19:51:59.418Z,22.83
2022-11-15T19:54:34.616Z,21.13
2022-11-15T19:57:01.931Z,21.10
2022-11-15T19:59:29.376Z,19.87
2022-11-15T20:01:56.737Z,19.90
2022-11-15T20:04:24.201Z,20.20
2022-11-15T20:06:51.606Z,20.50
2022-11-15T20:09:20.706Z,21.57
2022-11-15T20:11:48.013Z,21.20
2022-11-15T20:14:15.374Z,21.30
2022-11-15T20:16:43.778Z,20.30
2022-11-15T20:19:12.534Z,20.37
2022-11-15T20:21:40.218Z,22.57
2022-11-15T20:24:07.855Z,21.80
2022-11-15T20:26:35.692Z,22.23
2022-11-15T20:29:04.494Z,22.23
2022-11-15T20:31:32.299Z,23.37
2022-11-15T20:33:59.743Z,21.47
2022-11-15T20:36:27.067Z,21.73
2022-11-15T20:39:03.327Z,22.63
2022-11-15T20:41:32.040Z,21.67
2022-11-15T20:43:59.706Z,21.23
2022-11-15T20:46:26.988Z,20.63
2022-11-15T20:48:54.498Z,20.27
2022-11-15T20:51:21.896Z,20.70
2022-11-15T20:53:49.240Z,19.57
2022-11-15T20:56:18.595Z,20.73
2022-11-15T20:58:46.605Z,19.90
2022-11-15T21:01:15.224Z,18.63
2022-11-15T21:03:53.376Z,17.43
2022-11-15T21:06:21.187Z,17.77
2022-11-15T21:09:08.035Z,17.90
2022-11-15T21:11:54.391Z,18.23
2022-11-15T21:14:22.214Z,19.33
2022-11-15T21:16:49.746Z,18.53
2022-11-15T21:19:17.137Z,16.47
2022-11-15T21:21:44.572Z,17.03
2022-11-15T21:24:11.883Z,16.00
2022-11-15T21:26:39.274Z,15.70
2022-11-15T21:29:06.674Z,14.97
2022-11-15T21:31:34.188Z,14.63
2022-11-15T21:34:02.602Z,13.27
2022-11-15T21:36:30.453Z,15.27
2022-11-15T21:38:58.268Z,15.47
2022-11-15T21:41:25.856Z,14.90
2022-11-15T21:43:53.239Z,15.57
2022-11-15T21:46:20.495Z,15.43
2022-11-15T21:48:48.011Z,16.50
2022-11-15T21:51:18.405Z,17.63
2022-11-15T21:53:45.849Z,16.93
2022-11-15T21:56:13.467Z,16.37
2022-11-15T21:58:41.004Z,16.63
